Terminal Aerodrome Forecast
Issued by NWS Bismarck, ND

Home | Current Version | Previous Version | Graphics & Text | Print | Product List | Glossary On
Versions: 1 2 3 4 5 6 7 8 9 10 11 12 13 14 15
241
FTUS43 KBIS 052320
TAFISN
TAF
KISN 052320Z 0600/0624 22006KT P6SM SCT200
     FM060400 21005KT P6SM SCT200
     FM060800 23006KT P6SM SCT200 WS020/30040KT
     FM061200 24013KT P6SM BKN110 WS020/27050KT
     FM061800 25017G25KT P6SM SCT150
     FM062100 27028G38KT P6SM BKN070=

USA.gov is the U.S. government's official web portal to all federal, state and local government web resources and services.